-> Other stations

1455

Speed(max): 18.9(21.6)knots
Direction:53° ( NE)
Temperature: 26.0°C
Arrived: 2026-09-01 06:23:12 CEST

Past data:
hh:mmknots
Dir (°)
°C
06:21 17.8 20.5 NE(56) 26.0
06:19 17.3 22.1 ENE(59) 25.8
06:17 18.4 21.6 ENE(57) 25.8
06:15 20 23.2 NE(53) 26.0
06:13 17.8 22.1 NE(53) 26.0
06:11 17.8 22.1 NE(42) 26.0
06:09 17.3 20.5 NE(53) 26.0
06:07 16.7 21.1 NE(54) 26.0
06:05 18.4 21.6 NE(47) 26.0
06:03 18.4 21.1 NE(52) 25.8
06:01 16.2 20.5 NE(48) 25.8
05:59 15.1 18.4 ENE(62) 25.8
05:57 15.7 18.4 NE(47) 25.8
05:55 16.7 20.5 NE(45) 25.8
15 min. averages:
hh:mmknots
Dir (°)
°C
06:15 17.3 22.1 NE(50) 25.9
06:00 15.1 20.5 NE(47) 25.8
05:45 16.7 21.6 NE(45) 26.0
05:30 14.6 20 NE(44) 26.1
05:15 9.2 16.7 NNE(22) 25.0
05:00 3.2 7 NNW(336) 23.2
04:45 3.8 5.4 NNW(343) 23.1
04:30 3.8 8.1 NNW(337) 23.3
04:15 2.7 7 NNW(347) 22.4
04:00 0 0 S(191) 20.5
03:45 0 0 S(190) 19.9
03:30 0 0 S(190) 19.5
03:15 0 0 S(190) 19.5
03:00 0 0 S(190) 19.5
02:45 0 0 S(190) 19.6
Stations at HR:
1455
-> Other regions

Desktop view
Data provided by Holfuy.
© Holfuy Weather 2026